Time;durP1;ratioP1;P1;durP2;ratioP2;P2;SDS_P1;SDS_P2;PMS_P1;PMS_P2;Temp;Humidity;BMP_temperature;BMP_pressure;BME280_temperature;BME280_humidity;BME280_pressure;Samples;Min_cycle;Max_cycle;Signal;HPM_P1;HPM_P2
2022/01/31 00:00:57;;;;;;;;;;;;;;;9.22;47.98;100606.34;5035398;28;7102;-71
2022/01/31 00:03:23;;;;;;;;;;;;;;;9.24;48.49;100594.53;5033854;28;6825;-71
2022/01/31 00:05:49;;;;;;;;;;;;;;;9.23;48.77;100568.06;5031728;28;7318;-71
2022/01/31 00:08:21;;;;;;;;;;;;;;;9.21;47.83;100544.09;5025408;28;6915;-71
2022/01/31 00:10:47;;;;;;;;;;;;;;;9.16;49.38;100531.03;5036323;28;6931;-70
2022/01/31 00:13:19;;;;;;;;;;;;;;;9.14;48.16;100531.75;5033371;28;7194;-70
2022/01/31 00:15:52;;;;;;;;;;;;;;;9.14;49.27;100539.41;5000862;28;7234;-70
2022/01/31 00:18:18;;;;;;;;;;;;;;;9.18;49.06;100538.81;5037144;28;6828;-70
2022/01/31 00:20:44;;;;;;;;;;;;;;;9.22;49.01;100560.28;5038712;28;7164;-71
2022/01/31 00:23:09;;;;;;;;;;;;;;;9.27;49.03;100562.34;5025764;28;6832;-71
2022/01/31 00:25:35;;;;;;;;;;;;;;;9.32;49.04;100565.16;5029014;28;7256;-71
2022/01/31 00:28:01;;;;;;;;;;;;;;;9.37;48.75;100560.31;5028390;28;6819;-71
2022/01/31 00:30:26;;;;;;;;;;;;;;;9.41;48.65;100555.41;5003648;28;6928;-71
2022/01/31 00:32:52;;;;;;;;;;;;;;;9.44;48.86;100541.91;5018271;28;7093;-71
2022/01/31 00:35:18;;;;;;;;;;;;;;;9.45;49.59;100521.53;5039330;28;6787;-71
2022/01/31 00:37:45;;;;;;;;;;;;;;;9.48;48.92;100508.03;5029949;28;7019;-71
2022/01/31 00:40:12;;;;;;;;;;;;;;;9.50;48.74;100490.19;5039676;28;8065;-71
2022/01/31 00:42:38;;;;;;;;;;;;;;;9.51;48.62;100479.16;5038486;28;6819;-71
2022/01/31 00:47:43;;;;;;;;;;;;;;;9.51;48.94;100480.03;5025559;28;7180;-71
2022/01/31 00:50:11;;;;;;;;;;;;;;;9.51;49.11;100472.38;5006213;28;8448;-71
2022/01/31 00:52:40;;;;;;;;;;;;;;;9.53;48.35;100469.91;5032128;28;7369;-71
2022/01/31 00:55:08;;;;;;;;;;;;;;;9.52;48.43;100440.88;5028203;28;6981;-71
2022/01/31 00:57:34;;;;;;;;;;;;;;;9.53;48.35;100427.28;5027626;28;7015;-71
2022/01/31 01:00:00;;;;;;;;;;;;;;;9.53;49.32;100419.59;5005564;28;8452;-71
2022/01/31 01:02:26;;;;;;;;;;;;;;;9.53;48.12;100399.13;5021486;28;9329;-71
2022/01/31 01:04:53;;;;;;;;;;;;;;;9.50;48.56;100401.53;5025089;28;6871;-70
2022/01/31 01:07:22;;;;;;;;;;;;;;;9.49;48.91;100391.22;5021653;28;6816;-70
2022/01/31 01:09:48;;;;;;;;;;;;;;;9.48;49.38;100359.66;5037649;28;6860;-71
2022/01/31 01:12:17;;;;;;;;;;;;;;;9.48;48.88;100339.19;5029722;28;6887;-71
2022/01/31 01:14:45;;;;;;;;;;;;;;;9.46;49.25;100327.97;5028421;28;7145;-71
2022/01/31 01:17:11;;;;;;;;;;;;;;;9.47;49.36;100318.63;5019619;28;7013;-71
2022/01/31 01:19:37;;;;;;;;;;;;;;;9.47;48.93;100310.94;5034013;28;6779;-71
2022/01/31 01:22:03;;;;;;;;;;;;;;;9.47;48.65;100291.38;5004231;28;6882;-71
2022/01/31 01:24:29;;;;;;;;;;;;;;;9.48;48.76;100295.69;5037818;28;7909;-71
2022/01/31 01:26:56;;;;;;;;;;;;;;;9.50;49.45;100286.41;5037470;28;6804;-71
2022/01/31 01:29:22;;;;;;;;;;;;;;;9.53;49.05;100276.31;5059511;28;6819;-71
2022/01/31 01:31:49;;;;;;;;;;;;;;;9.55;49.84;100261.03;5036700;28;8670;-71
2022/01/31 01:34:16;;;;;;;;;;;;;;;9.52;48.86;100248.97;5039803;28;6986;-70
2022/01/31 01:36:44;;;;;;;;;;;;;;;9.47;48.86;100240.22;5008468;28;7066;-70
2022/01/31 01:39:10;;;;;;;;;;;;;;;9.44;50.09;100229.78;5002468;28;6803;-70
2022/01/31 01:41:36;;;;;;;;;;;;;;;9.43;49.78;100218.69;5037833;28;8302;-71
2022/01/31 01:44:02;;;;;;;;;;;;;;;9.44;50.26;100214.44;5056988;28;7122;-71
2022/01/31 01:46:28;;;;;;;;;;;;;;;9.48;50.25;100190.78;5025776;28;6804;-71
2022/01/31 01:48:53;;;;;;;;;;;;;;;9.51;50.42;100193.50;5023739;28;6807;-70
2022/01/31 01:51:19;;;;;;;;;;;;;;;9.55;50.42;100186.84;5037105;28;7864;-71
2022/01/31 01:53:45;;;;;;;;;;;;;;;9.58;49.48;100181.88;5020991;28;6967;-71
2022/01/31 01:56:13;;;;;;;;;;;;;;;9.62;50.06;100157.31;5021788;28;6866;-71
2022/01/31 01:58:43;;;;;;;;;;;;;;;9.65;49.37;100177.91;5024247;28;6824;-71
2022/01/31 02:01:11;;;;;;;;;;;;;;;9.59;49.73;100164.03;5015866;28;7142;-71
2022/01/31 02:03:39;;;;;;;;;;;;;;;9.51;50.36;100151.66;5038054;28;7226;-71
2022/01/31 02:06:07;;;;;;;;;;;;;;;9.40;50.46;100146.03;5041118;28;6955;-70
2022/01/31 02:08:44;;;;;;;;;;;;;;;9.28;51.31;100136.09;5017902;28;6833;-70
2022/01/31 02:11:12;;;;;;;;;;;;;;;9.17;52.45;100136.44;5013175;28;6843;-71
2022/01/31 02:13:39;;;;;;;;;;;;;;;9.08;51.88;100135.09;5004865;28;7333;-70
2022/01/31 02:16:07;;;;;;;;;;;;;;;8.97;52.68;100127.75;5032134;28;6953;-70
2022/01/31 02:18:35;;;;;;;;;;;;;;;8.87;52.55;100123.00;5037194;28;7215;-70
2022/01/31 02:21:02;;;;;;;;;;;;;;;8.80;54.34;100115.84;5019711;28;6820;-70
2022/01/31 02:23:27;;;;;;;;;;;;;;;8.71;54.24;100112.00;5010117;28;6803;-70
2022/01/31 02:26:03;;;;;;;;;;;;;;;8.63;55.50;100090.31;5021704;28;8960;-70
2022/01/31 02:28:35;;;;;;;;;;;;;;;8.56;55.10;100083.13;5027827;28;7895;-70
2022/01/31 02:31:04;;;;;;;;;;;;;;;8.49;55.54;100064.03;5032867;28;6823;-70
2022/01/31 02:33:31;;;;;;;;;;;;;;;8.44;56.25;100066.34;5018950;28;7099;-70
2022/01/31 02:36:01;;;;;;;;;;;;;;;8.40;56.17;100059.34;5018676;28;6888;-70
2022/01/31 02:38:28;;;;;;;;;;;;;;;8.36;56.69;100047.19;5044485;28;6996;-70
2022/01/31 02:40:53;;;;;;;;;;;;;;;8.33;56.71;100052.16;5017019;28;7571;-70
2022/01/31 02:43:26;;;;;;;;;;;;;;;8.30;56.30;100051.97;5060774;28;6937;-70
2022/01/31 02:45:52;;;;;;;;;;;;;;;8.26;57.47;100025.44;5015671;28;7298;-70
2022/01/31 02:48:21;;;;;;;;;;;;;;;8.26;57.37;100032.19;5015816;28;6818;-70
2022/01/31 02:50:47;;;;;;;;;;;;;;;8.23;56.68;100009.06;5021545;28;6828;-70
2022/01/31 02:53:25;;;;;;;;;;;;;;;8.22;57.47;100010.72;5026871;28;7064;-70
2022/01/31 02:55:55;;;;;;;;;;;;;;;8.20;57.91;99990.22;5044680;28;7321;-70
2022/01/31 02:58:24;;;;;;;;;;;;;;;8.20;58.44;99989.34;5009544;28;6990;-70
2022/01/31 03:00:55;;;;;;;;;;;;;;;8.18;58.03;99986.72;5026586;28;7924;-70
2022/01/31 03:03:21;;;;;;;;;;;;;;;8.19;58.89;99992.72;5020064;28;6816;-70
2022/01/31 03:05:47;;;;;;;;;;;;;;;8.22;58.46;99984.34;5021705;28;7601;-70
2022/01/31 03:08:13;;;;;;;;;;;;;;;8.23;58.50;99970.78;5031676;28;7229;-70
2022/01/31 03:10:39;;;;;;;;;;;;;;;8.24;57.87;99968.28;5001475;28;7373;-70
2022/01/31 03:13:06;;;;;;;;;;;;;;;8.27;58.37;99954.78;5030178;28;6791;-70
2022/01/31 03:15:33;;;;;;;;;;;;;;;8.28;58.26;99966.75;5028034;28;7319;-71
2022/01/31 03:17:59;;;;;;;;;;;;;;;8.31;59.75;99961.81;5030292;28;6836;-70
2022/01/31 03:20:25;;;;;;;;;;;;;;;8.34;59.07;99967.06;5033253;28;8833;-70
2022/01/31 03:22:51;;;;;;;;;;;;;;;8.37;59.57;99959.56;5029932;28;6852;-70
2022/01/31 03:25:18;;;;;;;;;;;;;;;8.42;60.01;99949.56;5029923;28;6809;-70
2022/01/31 03:27:47;;;;;;;;;;;;;;;8.47;58.55;99943.03;5060097;28;7349;-70
2022/01/31 03:30:20;;;;;;;;;;;;;;;8.51;59.27;99929.63;5025698;28;7539;-70
2022/01/31 03:32:47;;;;;;;;;;;;;;;8.56;58.89;99920.53;5014008;28;6892;-70
2022/01/31 03:35:14;;;;;;;;;;;;;;;8.59;58.85;99922.31;5028492;28;7161;-70
2022/01/31 03:37:39;;;;;;;;;;;;;;;8.63;59.75;99923.34;5030188;28;6871;-70
2022/01/31 03:40:08;;;;;;;;;;;;;;;8.65;59.60;99917.53;5028314;28;8148;-70
2022/01/31 03:42:35;;;;;;;;;;;;;;;8.67;60.17;99905.69;5028819;28;6803;-70
2022/01/31 03:45:01;;;;;;;;;;;;;;;8.71;59.97;99910.16;5048318;28;7023;-70
2022/01/31 03:47:27;;;;;;;;;;;;;;;8.74;60.03;99915.41;5027564;28;6782;-70
2022/01/31 03:49:53;;;;;;;;;;;;;;;8.77;59.32;99909.56;5027007;28;6792;-70
2022/01/31 03:52:19;;;;;;;;;;;;;;;8.81;59.50;99896.13;5025411;28;6800;-70
2022/01/31 03:54:46;;;;;;;;;;;;;;;8.83;59.23;99899.63;5023863;28;7391;-70
2022/01/31 03:57:13;;;;;;;;;;;;;;;8.88;59.40;99925.38;5027782;28;6824;-71
2022/01/31 03:59:39;;;;;;;;;;;;;;;8.90;60.00;99923.81;5039197;28;6800;-70
2022/01/31 04:02:06;;;;;;;;;;;;;;;8.94;60.38;99920.59;5037822;28;6863;-70
2022/01/31 04:04:35;;;;;;;;;;;;;;;8.97;60.19;99902.81;5021579;28;8119;-70
2022/01/31 04:07:02;;;;;;;;;;;;;;;9.01;59.34;99891.94;5021770;28;6824;-70
2022/01/31 04:09:28;;;;;;;;;;;;;;;9.03;60.57;99902.25;5002918;28;6788;-70
2022/01/31 04:11:53;;;;;;;;;;;;;;;9.05;60.31;99887.88;5036013;28;6811;-70
2022/01/31 04:14:20;;;;;;;;;;;;;;;9.09;59.63;99891.44;5020046;28;6898;-70
2022/01/31 04:16:45;;;;;;;;;;;;;;;9.12;60.27;99910.31;5035077;28;6973;-70
2022/01/31 04:19:11;;;;;;;;;;;;;;;9.14;60.39;99892.50;5054379;28;7068;-71
2022/01/31 04:21:37;;;;;;;;;;;;;;;9.19;59.77;99908.94;5019811;28;6859;-71
2022/01/31 04:24:03;;;;;;;;;;;;;;;9.24;60.00;99916.81;5001145;28;7505;-71
2022/01/31 04:26:33;;;;;;;;;;;;;;;9.26;60.52;99908.41;5052646;28;6799;-70
2022/01/31 04:29:09;;;;;;;;;;;;;;;9.31;60.52;99914.59;5013633;28;6823;-70
2022/01/31 04:31:37;;;;;;;;;;;;;;;9.37;60.33;99905.47;5019763;28;6831;-70
2022/01/31 04:34:03;;;;;;;;;;;;;;;9.41;60.49;99910.75;5025282;28;6816;-70
2022/01/31 04:36:29;;;;;;;;;;;;;;;9.45;60.28;99905.00;5034749;28;7055;-71
2022/01/31 04:38:54;;;;;;;;;;;;;;;9.50;59.59;99907.75;5015514;28;7920;-70
2022/01/31 04:41:20;;;;;;;;;;;;;;;9.55;59.66;99906.25;5033432;28;6886;-70
2022/01/31 04:43:48;;;;;;;;;;;;;;;9.59;60.41;99909.84;5019030;28;7189;-71
2022/01/31 04:46:14;;;;;;;;;;;;;;;9.62;60.05;99912.56;5003489;28;6900;-71
2022/01/31 04:48:43;;;;;;;;;;;;;;;9.67;59.95;99907.63;4999076;28;6894;-71
2022/01/31 04:51:10;;;;;;;;;;;;;;;9.68;59.79;99896.59;5035396;28;7172;-70
2022/01/31 04:53:36;;;;;;;;;;;;;;;9.70;59.67;99897.53;5036314;28;7380;-71
2022/01/31 04:56:03;;;;;;;;;;;;;;;9.72;59.96;99898.47;5012105;28;8099;-71
2022/01/31 04:58:31;;;;;;;;;;;;;;;9.75;60.31;99902.84;5036568;28;6982;-70
2022/01/31 05:00:56;;;;;;;;;;;;;;;9.77;59.42;99889.31;5036072;28;7049;-70
2022/01/31 05:03:22;;;;;;;;;;;;;;;9.78;59.73;99888.50;5011385;28;6955;-70
2022/01/31 05:05:49;;;;;;;;;;;;;;;9.81;59.87;99887.75;5025232;28;6883;-70
2022/01/31 05:08:16;;;;;;;;;;;;;;;9.81;59.53;99886.06;5052085;28;6820;-71
2022/01/31 05:10:49;;;;;;;;;;;;;;;9.82;60.12;99879.28;5013761;28;6819;-70
2022/01/31 05:13:16;;;;;;;;;;;;;;;9.81;59.42;99878.38;5027827;28;7043;-71
2022/01/31 05:15:44;;;;;;;;;;;;;;;9.81;59.35;99883.50;5031226;28;7167;-70
2022/01/31 05:18:10;;;;;;;;;;;;;;;9.82;59.27;99877.56;5025301;28;7144;-70
2022/01/31 05:20:37;;;;;;;;;;;;;;;9.85;59.56;99876.84;5029602;28;6803;-70
2022/01/31 05:23:08;;;;;;;;;;;;;;;9.86;59.64;99871.78;5044675;28;7342;-70
2022/01/31 05:25:35;;;;;;;;;;;;;;;9.89;59.95;99857.38;5038167;28;6808;-70
2022/01/31 05:28:02;;;;;;;;;;;;;;;9.91;59.41;99865.97;5066243;28;7010;-70
2022/01/31 05:30:27;;;;;;;;;;;;;;;9.95;58.82;99873.00;5032101;28;6945;-70
2022/01/31 05:32:53;;;;;;;;;;;;;;;9.98;59.59;99873.09;5040812;28;8242;-70
2022/01/31 05:35:19;;;;;;;;;;;;;;;9.99;59.40;99878.31;5048012;28;7638;-70
2022/01/31 05:37:45;;;;;;;;;;;;;;;10.02;59.28;99876.69;5029802;28;6899;-70
2022/01/31 05:40:11;;;;;;;;;;;;;;;10.03;59.23;99869.03;5033641;28;6784;-70
2022/01/31 05:42:37;;;;;;;;;;;;;;;10.05;58.50;99870.00;5039998;28;6880;-70
2022/01/31 05:45:04;;;;;;;;;;;;;;;10.06;58.06;99879.44;5025109;28;6819;-71
2022/01/31 05:47:29;;;;;;;;;;;;;;;10.09;57.90;99863.28;5009036;28;7567;-71
2022/01/31 05:49:55;;;;;;;;;;;;;;;10.10;57.82;99857.38;5032607;28;6867;-71
2022/01/31 05:52:21;;;;;;;;;;;;;;;10.10;57.47;99863.38;5032773;28;7307;-70
2022/01/31 05:54:47;;;;;;;;;;;;;;;10.12;57.21;99851.50;5030329;28;6878;-70
2022/01/31 05:57:12;;;;;;;;;;;;;;;10.13;57.70;99837.03;5015541;28;7027;-70
2022/01/31 05:59:41;;;;;;;;;;;;;;;10.14;57.03;99836.22;5015267;28;6784;-70
2022/01/31 06:02:07;;;;;;;;;;;;;;;10.14;57.50;99842.22;5028661;28;6808;-70
2022/01/31 06:04:33;;;;;;;;;;;;;;;10.16;56.37;99843.97;5029032;28;7635;-71
2022/01/31 06:07:00;;;;;;;;;;;;;;;10.16;56.88;99843.97;5029029;28;6787;-71
2022/01/31 06:09:28;;;;;;;;;;;;;;;10.16;56.67;99843.97;5032934;28;6979;-71
2022/01/31 06:11:54;;;;;;;;;;;;;;;10.14;56.61;99831.97;5006325;28;7262;-71
2022/01/31 06:14:20;;;;;;;;;;;;;;;10.16;56.23;99826.03;5029309;28;6888;-71
2022/01/31 06:16:46;;;;;;;;;;;;;;;10.14;56.69;99819.16;5023577;28;6796;-71
2022/01/31 06:19:12;;;;;;;;;;;;;;;10.14;56.48;99824.28;5040337;28;6799;-71
2022/01/31 06:21:38;;;;;;;;;;;;;;;10.16;55.97;99823.47;5030761;28;6799;-71
2022/01/31 06:24:09;;;;;;;;;;;;;;;10.13;55.85;99819.94;5045164;28;6953;-71
2022/01/31 06:26:37;;;;;;;;;;;;;;;10.11;56.16;99830.97;5040153;28;6819;-71
2022/01/31 06:29:03;;;;;;;;;;;;;;;10.07;56.03;99824.84;5036649;28;7154;-71
2022/01/31 06:31:30;;;;;;;;;;;;;;;10.04;55.63;99823.84;5026554;28;6815;-71
2022/01/31 06:33:57;;;;;;;;;;;;;;;9.98;55.87;99821.91;5029976;28;7229;-71
2022/01/31 06:36:23;;;;;;;;;;;;;;;9.92;55.75;99813.97;5039040;28;7739;-71
2022/01/31 06:38:51;;;;;;;;;;;;;;;9.89;55.91;99824.09;5025455;28;6819;-71
2022/01/31 06:41:18;;;;;;;;;;;;;;;9.82;55.60;99813.59;5020782;28;7337;-71
2022/01/31 06:43:46;;;;;;;;;;;;;;;9.77;56.73;99812.53;5026538;28;6832;-70
2022/01/31 06:46:14;;;;;;;;;;;;;;;9.73;56.64;99808.06;5030991;28;7160;-70
2022/01/31 06:48:40;;;;;;;;;;;;;;;9.68;56.39;99807.88;5032018;28;7072;-70
2022/01/31 06:51:06;;;;;;;;;;;;;;;9.63;56.50;99811.94;5039943;28;7015;-70
2022/01/31 06:53:32;;;;;;;;;;;;;;;9.58;56.50;99813.44;5023056;28;6823;-70
2022/01/31 06:55:59;;;;;;;;;;;;;;;9.55;56.76;99819.28;5009387;28;8046;-70
2022/01/31 06:58:25;;;;;;;;;;;;;;;9.50;56.65;99815.66;5024519;28;7210;-70
2022/01/31 07:00:52;;;;;;;;;;;;;;;9.46;57.49;99818.88;5023243;28;7054;-70
2022/01/31 07:03:17;;;;;;;;;;;;;;;9.43;57.46;99823.88;5008393;28;7005;-71
2022/01/31 07:05:44;;;;;;;;;;;;;;;9.40;57.06;99831.44;5018889;28;8133;-70
2022/01/31 07:08:12;;;;;;;;;;;;;;;9.36;57.75;99847.44;5017003;28;6807;-71
2022/01/31 07:10:38;;;;;;;;;;;;;;;9.31;57.45;99837.88;5054857;28;6820;-70
2022/01/31 07:13:14;;;;;;;;;;;;;;;9.28;57.45;99830.09;5022709;28;6816;-70
2022/01/31 07:15:40;;;;;;;;;;;;;;;9.25;57.46;99842.72;5023037;28;7034;-70
2022/01/31 07:18:06;;;;;;;;;;;;;;;9.22;57.10;99846.81;5009853;28;7025;-70
2022/01/31 07:20:40;;;;;;;;;;;;;;;9.17;58.13;99836.38;5037011;28;7159;-71
2022/01/31 07:23:16;;;;;;;;;;;;;;;9.14;57.44;99842.25;5021692;28;8473;-70
2022/01/31 07:25:43;;;;;;;;;;;;;;;9.12;57.60;99841.28;5029613;28;6823;-70
2022/01/31 07:28:12;;;;;;;;;;;;;;;9.11;57.50;99825.91;5032450;28;6807;-71
2022/01/31 07:30:40;;;;;;;;;;;;;;;9.09;58.25;99818.16;5030214;28;6984;-70
2022/01/31 07:33:11;;;;;;;;;;;;;;;9.09;57.20;99832.63;5031399;28;6835;-70
2022/01/31 07:35:40;;;;;;;;;;;;;;;9.08;58.09;99835.97;5003277;28;6979;-70
2022/01/31 07:38:05;;;;;;;;;;;;;;;9.08;58.01;99844.53;5027189;28;6816;-70
2022/01/31 07:40:31;;;;;;;;;;;;;;;9.09;57.66;99847.97;5028783;28;7082;-70
2022/01/31 07:42:57;;;;;;;;;;;;;;;9.11;57.95;99841.25;5039648;28;6894;-70
2022/01/31 07:45:22;;;;;;;;;;;;;;;9.13;57.46;99849.84;5011904;28;7340;-70
2022/01/31 07:47:48;;;;;;;;;;;;;;;9.14;57.92;99856.72;5024460;28;6960;-70
2022/01/31 07:50:14;;;;;;;;;;;;;;;9.16;58.61;99849.97;5002488;28;6800;-70
2022/01/31 07:52:41;;;;;;;;;;;;;;;9.17;58.16;99857.72;5038353;28;7228;-70
2022/01/31 07:55:10;;;;;;;;;;;;;;;9.15;57.32;99858.47;5010022;28;7361;-70
2022/01/31 07:57:37;;;;;;;;;;;;;;;9.14;57.80;99856.72;5040683;28;7195;-70
2022/01/31 08:00:06;;;;;;;;;;;;;;;9.12;57.18;99855.78;5037609;28;8060;-70
2022/01/31 08:02:31;;;;;;;;;;;;;;;9.09;57.33;99850.53;5035310;28;6831;-70
2022/01/31 08:04:58;;;;;;;;;;;;;;;9.06;57.49;99858.94;5019798;28;7888;-70
2022/01/31 08:07:24;;;;;;;;;;;;;;;9.05;57.73;99861.41;5035261;28;7247;-70
2022/01/31 08:09:50;;;;;;;;;;;;;;;9.04;57.80;99855.44;5021909;28;6819;-70
2022/01/31 08:12:16;;;;;;;;;;;;;;;9.03;57.76;99859.66;5037774;28;6780;-71
2022/01/31 08:14:43;;;;;;;;;;;;;;;9.05;57.52;99861.41;5038384;28;6953;-70
2022/01/31 08:17:09;;;;;;;;;;;;;;;9.05;57.75;99846.06;5005711;28;7232;-70
2022/01/31 08:19:35;;;;;;;;;;;;;;;9.05;58.55;99853.75;5025066;28;7192;-70
2022/01/31 08:22:01;;;;;;;;;;;;;;;9.06;57.78;99858.03;5027753;28;6796;-70
2022/01/31 08:24:26;;;;;;;;;;;;;;;9.06;57.71;99858.03;5002650;28;6968;-70
2022/01/31 08:26:52;;;;;;;;;;;;;;;9.08;58.49;99857.31;5045858;28;6783;-70
2022/01/31 08:29:25;;;;;;;;;;;;;;;9.08;58.77;99856.41;5028178;28;6991;-70
2022/01/31 08:31:53;;;;;;;;;;;;;;;9.09;58.26;99850.53;5038992;28;6910;-70
2022/01/31 08:35:47;;;;;;;;;;;;;;;9.09;58.44;99851.38;5037647;28;7057;-70
2022/01/31 08:37:08;;;;;;;;;;;;;;;9.11;58.66;99851.47;5022932;28;8598;-70
2022/01/31 08:39:34;;;;;;;;;;;;;;;9.11;57.71;99859.13;5024357;28;6887;-70
2022/01/31 08:41:59;;;;;;;;;;;;;;;9.11;58.53;99860.00;5024071;28;7309;-70
2022/01/31 08:44:25;;;;;;;;;;;;;;;9.10;58.03;99862.50;5029878;28;6804;-70
2022/01/31 08:46:51;;;;;;;;;;;;;;;9.10;57.68;99872.72;5023654;28;7236;-70
2022/01/31 08:49:17;;;;;;;;;;;;;;;9.08;58.33;99858.97;5036788;28;7844;-70
2022/01/31 08:51:45;;;;;;;;;;;;;;;9.07;57.44;99859.78;5007278;28;6815;-71
2022/01/31 08:54:13;;;;;;;;;;;;;;;9.05;58.64;99867.41;5025768;28;7062;-70
2022/01/31 08:56:44;;;;;;;;;;;;;;;9.02;57.45;99878.38;5032177;28;6816;-70
2022/01/31 08:59:16;;;;;;;;;;;;;;;8.98;57.79;99871.38;5014738;28;6865;-70
2022/01/31 09:01:43;;;;;;;;;;;;;;;8.95;58.45;99884.00;5033568;28;6904;-71
2022/01/31 09:04:12;;;;;;;;;;;;;;;8.92;58.93;99881.31;5028164;28;6839;-71
2022/01/31 09:06:39;;;;;;;;;;;;;;;8.88;59.15;99887.06;5011041;28;6980;-70
2022/01/31 09:09:08;;;;;;;;;;;;;;;8.85;57.83;99876.69;5041802;28;6997;-71
2022/01/31 09:11:37;;;;;;;;;;;;;;;8.82;58.68;99874.88;5041191;28;7101;-70
2022/01/31 09:14:03;;;;;;;;;;;;;;;8.82;58.76;99864.66;5026476;28;7496;-70
2022/01/31 09:16:30;;;;;;;;;;;;;;;8.81;59.09;99852.69;5022484;28;7019;-70
2022/01/31 09:18:56;;;;;;;;;;;;;;;8.80;58.90;99870.53;5058723;28;7208;-70
2022/01/31 09:21:22;;;;;;;;;;;;;;;8.78;58.69;99861.88;5006554;28;7952;-70
2022/01/31 09:23:52;;;;;;;;;;;;;;;8.78;58.78;99862.78;5004596;28;6776;-70
2022/01/31 09:26:24;;;;;;;;;;;;;;;8.77;58.51;99858.47;5041469;28;7321;-70
2022/01/31 09:28:52;;;;;;;;;;;;;;;8.77;58.69;99868.69;5021085;28;6820;-70
2022/01/31 09:31:20;;;;;;;;;;;;;;;8.76;59.55;99859.28;5023006;28;6974;-70
2022/01/31 09:33:50;;;;;;;;;;;;;;;8.75;59.08;99863.50;5026911;28;6903;-70
2022/01/31 09:36:16;;;;;;;;;;;;;;;8.77;58.83;99860.13;4985479;28;7312;-70
2022/01/31 09:38:42;;;;;;;;;;;;;;;8.79;58.36;99853.41;5024810;28;6799;-70
2022/01/31 09:41:12;;;;;;;;;;;;;;;8.78;59.32;99867.00;5041689;28;6876;-70
2022/01/31 09:43:59;;;;;;;;;;;;;;;8.79;58.27;99861.06;5020789;28;7010;-70
2022/01/31 09:48:56;;;;;;;;;;;;;;;8.78;59.63;99860.22;5039792;28;8472;-70
2022/01/31 09:51:25;;;;;;;;;;;;;;;8.80;58.57;99857.75;5023464;28;6827;-70
2022/01/31 09:54:03;;;;;;;;;;;;;;;8.81;58.42;99856.94;5016314;28;7311;-70
2022/01/31 09:56:37;;;;;;;;;;;;;;;8.82;59.33;99858.69;5025327;28;6831;-70
2022/01/31 09:59:07;;;;;;;;;;;;;;;8.85;59.49;99861.38;5024844;28;6903;-70
2022/01/31 10:01:35;;;;;;;;;;;;;;;8.86;59.58;99863.13;5043424;28;6820;-70
2022/01/31 10:04:17;;;;;;;;;;;;;;;8.87;58.95;99872.53;5024112;28;8201;-70
2022/01/31 10:06:46;;;;;;;;;;;;;;;8.89;58.86;99874.34;5021135;28;6985;-70
2022/01/31 10:09:22;;;;;;;;;;;;;;;8.93;58.30;99897.50;5020351;28;6819;-70
2022/01/31 10:11:53;;;;;;;;;;;;;;;8.92;58.92;99896.63;5021817;28;9357;-70
2022/01/31 10:17:25;;;;;;;;;;;;;;;8.92;58.27;99906.88;5036161;28;7157;-70
2022/01/31 10:19:55;;;;;;;;;;;;;;;8.93;58.60;99902.59;5048261;28;7302;-70
2022/01/31 10:22:26;;;;;;;;;;;;;;;8.95;58.75;99888.25;5023884;28;6840;-70
2022/01/31 10:24:57;;;;;;;;;;;;;;;8.97;58.56;99879.81;5031340;28;6888;-70
2022/01/31 10:27:32;;;;;;;;;;;;;;;8.97;58.50;99902.81;5048743;28;7091;-70
2022/01/31 10:30:21;;;;;;;;;;;;;;;8.97;59.48;99907.94;5032704;28;7439;-70
2022/01/31 10:32:49;;;;;;;;;;;;;;;8.98;58.66;99912.28;5034872;28;6816;-70
2022/01/31 10:35:20;;;;;;;;;;;;;;;8.98;58.60;99922.50;5034630;28;6859;-70
2022/01/31 10:37:49;;;;;;;;;;;;;;;8.99;59.15;99915.69;5034199;28;7257;-70
2022/01/31 10:56:50;;;;;;;;;;;;;;;9.00;58.57;99925.09;5034821;28;6828;-70
2022/01/31 10:59:37;;;;;;;;;;;;;;;9.00;58.16;99946.44;5021450;28;6990;-70
2022/01/31 11:02:07;;;;;;;;;;;;;;;8.99;59.26;99951.47;5027092;28;7396;-70
2022/01/31 11:04:44;;;;;;;;;;;;;;;9.00;58.76;99941.31;5031728;28;6823;-70
2022/01/31 11:07:14;;;;;;;;;;;;;;;8.98;57.97;99937.84;5025769;28;6954;-70
2022/01/31 11:09:41;;;;;;;;;;;;;;;8.96;58.89;99923.22;5019556;28;7203;-70
2022/01/31 11:12:09;;;;;;;;;;;;;;;8.95;58.44;99947.88;5015357;28;7312;-70
2022/01/31 11:14:43;;;;;;;;;;;;;;;8.95;57.94;99954.69;5040566;28;6868;-70
2022/01/31 11:17:13;;;;;;;;;;;;;;;8.96;58.09;99969.22;5041797;28;7157;-70
2022/01/31 11:19:43;;;;;;;;;;;;;;;8.97;58.66;99942.84;5028255;28;6812;-70
2022/01/31 11:22:13;;;;;;;;;;;;;;;8.99;58.96;99977.03;5062114;28;6891;-70
2022/01/31 11:24:46;;;;;;;;;;;;;;;9.00;59.17;99972.00;5062657;28;6823;-70
2022/01/31 11:27:32;;;;;;;;;;;;;;;9.03;58.91;99976.41;5028495;28;7062;-70
2022/01/31 11:30:00;;;;;;;;;;;;;;;9.06;58.87;99981.63;5028010;28;7035;-70
2022/01/31 11:32:27;;;;;;;;;;;;;;;9.09;58.16;99973.25;5018301;28;6816;-70
2022/01/31 11:34:55;;;;;;;;;;;;;;;9.09;59.27;99978.38;5016493;28;7272;-70
2022/01/31 11:37:25;;;;;;;;;;;;;;;9.09;59.09;99991.16;5021316;28;7180;-70
2022/01/31 11:40:06;;;;;;;;;;;;;;;9.08;58.07;100000.47;5037690;28;8130;-70
2022/01/31 11:42:34;;;;;;;;;;;;;;;9.09;58.56;100016.72;5005471;28;6931;-70
2022/01/31 11:44:59;;;;;;;;;;;;;;;9.07;58.14;100013.19;5028306;28;7322;-70
2022/01/31 11:47:29;;;;;;;;;;;;;;;9.06;58.23;100013.97;5025795;28;6787;-70
2022/01/31 11:50:12;;;;;;;;;;;;;;;9.03;58.87;100025.81;5025795;28;6808;-70
2022/01/31 11:52:47;;;;;;;;;;;;;;;9.00;58.06;100022.25;5025453;28;7900;-70
2022/01/31 11:55:20;;;;;;;;;;;;;;;8.96;59.34;100028.88;5002973;28;6816;-70
2022/01/31 11:57:50;;;;;;;;;;;;;;;8.93;58.10;100045.75;5028626;28;7470;-70
2022/01/31 12:00:20;;;;;;;;;;;;;;;8.89;58.22;100034.53;5025965;28;6832;-70
2022/01/31 12:02:52;;;;;;;;;;;;;;;8.84;59.16;100026.63;5026384;28;7035;-70
2022/01/31 12:05:31;;;;;;;;;;;;;;;8.83;59.81;100023.97;5045443;28;6895;-70
2022/01/31 12:08:15;;;;;;;;;;;;;;;8.82;59.37;100006.91;5026050;28;7265;-70
2022/01/31 12:10:46;;;;;;;;;;;;;;;8.84;58.76;100010.41;5053892;28;6827;-70
2022/01/31 12:13:49;;;;;;;;;;;;;;;8.85;59.13;100013.03;5027172;28;6899;-70
2022/01/31 12:22:51;;;;;;;;;;;;;;;8.91;59.32;100024.34;5026701;28;7527;-70
2022/01/31 12:25:31;;;;;;;;;;;;;;;8.92;58.84;100032.09;5028460;28;6884;-70
2022/01/31 12:28:30;;;;;;;;;;;;;;;8.93;59.70;100013.41;5023822;28;6958;-70
2022/01/31 12:30:55;;;;;;;;;;;;;;;8.94;59.34;100061.16;5026593;28;7204;-70
2022/01/31 12:33:41;;;;;;;;;;;;;;;8.95;59.59;100045.03;5024021;28;6867;-70
2022/01/31 12:36:07;;;;;;;;;;;;;;;8.95;58.40;100049.28;5057403;28;6811;-70
2022/01/31 12:38:33;;;;;;;;;;;;;;;8.95;59.20;100049.28;5040153;28;6823;-70
2022/01/31 12:41:05;;;;;;;;;;;;;;;8.95;59.37;100051.81;5023858;28;7593;-70
2022/01/31 12:46:09;;;;;;;;;;;;;;;8.92;59.06;100042.31;5040751;28;6816;-70
2022/01/31 12:48:36;;;;;;;;;;;;;;;8.92;58.71;100055.09;5038619;28;6982;-70
2022/01/31 12:51:06;;;;;;;;;;;;;;;8.91;59.44;100075.47;4998939;28;7371;-70
2022/01/31 12:56:30;;;;;;;;;;;;;;;8.92;59.88;100080.66;5043600;28;6823;-70
2022/01/31 12:59:14;;;;;;;;;;;;;;;8.91;58.89;100071.25;5043529;28;6895;-70
2022/01/31 13:01:49;;;;;;;;;;;;;;;8.89;58.74;100083.94;5041389;28;6828;-70
2022/01/31 13:04:26;;;;;;;;;;;;;;;8.88;59.54;100082.19;5034678;28;7054;-70
2022/01/31 13:07:09;;;;;;;;;;;;;;;8.88;59.71;100083.84;5030994;28;7031;-70
2022/01/31 13:09:38;;;;;;;;;;;;;;;8.87;59.20;100090.66;5031660;28;6820;-70
2022/01/31 13:12:14;;;;;;;;;;;;;;;8.86;58.88;100105.91;5034172;28;6804;-70
2022/01/31 13:14:49;;;;;;;;;;;;;;;8.84;59.24;100089.63;5025274;28;7218;-70
2022/01/31 13:17:23;;;;;;;;;;;;;;;8.83;60.15;100103.22;5032838;28;6811;-70
2022/01/31 13:20:02;;;;;;;;;;;;;;;8.83;59.64;100110.88;5032569;28;7278;-70
2022/01/31 13:22:37;;;;;;;;;;;;;;;8.82;59.27;100109.97;5038845;28;6792;-70
2022/01/31 13:25:10;;;;;;;;;;;;;;;8.82;59.23;100101.47;5033694;28;7165;-70
2022/01/31 13:27:46;;;;;;;;;;;;;;;8.81;58.83;100097.16;5048914;28;6808;-70
2022/01/31 13:30:19;;;;;;;;;;;;;;;8.80;59.74;100105.63;5025706;28;7187;-70
2022/01/31 13:32:47;;;;;;;;;;;;;;;8.78;59.86;100113.19;5039860;28;7142;-70
2022/01/31 13:35:21;;;;;;;;;;;;;;;8.77;59.01;100115.66;5030980;28;7458;-70
2022/01/31 13:38:07;;;;;;;;;;;;;;;8.75;59.06;100121.56;5050782;28;6973;-70
2022/01/31 13:40:47;;;;;;;;;;;;;;;8.74;59.27;100132.59;5030772;28;6820;-70
2022/01/31 13:43:29;;;;;;;;;;;;;;;8.77;59.88;100141.22;5009814;28;6892;-70
2022/01/31 13:46:23;;;;;;;;;;;;;;;8.77;60.19;100126.78;5030258;28;7703;-70
2022/01/31 13:49:11;;;;;;;;;;;;;;;8.79;59.31;100137.94;5030703;28;6909;-70